sensor_id;sensor_type;location;lat;lon;timestamp;pressure;altitude;pressure_sealevel;temperature;humidity
15489;BME280;7846;48.830;9.116;2023-05-24T00:02:25;98170.09;;;15.04;65.67
15489;BME280;7846;48.830;9.116;2023-05-24T00:04:52;98176.06;;;15.06;65.54
15489;BME280;7846;48.830;9.116;2023-05-24T00:07:18;98174.63;;;15.18;65.52
15489;BME280;7846;48.830;9.116;2023-05-24T00:09:43;98172.28;;;15.00;65.76
15489;BME280;7846;48.830;9.116;2023-05-24T00:12:09;98167.91;;;15.08;65.95
15489;BME280;7846;48.830;9.116;2023-05-24T00:14:34;98168.16;;;14.98;65.97
15489;BME280;7846;48.830;9.116;2023-05-24T00:17:00;98168.81;;;15.00;66.07
15489;BME280;7846;48.830;9.116;2023-05-24T00:19:25;98166.03;;;15.16;65.64
15489;BME280;7846;48.830;9.116;2023-05-24T00:21:51;98164.97;;;15.25;65.04
15489;BME280;7846;48.830;9.116;2023-05-24T00:24:17;98165.97;;;15.24;65.24
15489;BME280;7846;48.830;9.116;2023-05-24T00:26:42;98166.94;;;15.69;63.89
15489;BME280;7846;48.830;9.116;2023-05-24T00:29:07;98171.28;;;15.24;64.83
15489;BME280;7846;48.830;9.116;2023-05-24T00:31:33;98165.94;;;15.47;64.56
15489;BME280;7846;48.830;9.116;2023-05-24T00:33:59;98164.16;;;15.25;64.75
15489;BME280;7846;48.830;9.116;2023-05-24T00:36:25;98160.09;;;15.52;64.59
15489;BME280;7846;48.830;9.116;2023-05-24T00:38:50;98154.28;;;15.34;64.88
15489;BME280;7846;48.830;9.116;2023-05-24T00:41:16;98155.31;;;15.10;65.53
15489;BME280;7846;48.830;9.116;2023-05-24T00:43:42;98153.53;;;15.63;64.20
15489;BME280;7846;48.830;9.116;2023-05-24T00:46:14;98149.91;;;15.41;65.58
15489;BME280;7846;48.830;9.116;2023-05-24T00:48:41;98147.66;;;15.15;65.71
15489;BME280;7846;48.830;9.116;2023-05-24T00:51:07;98143.78;;;15.40;65.18
15489;BME280;7846;48.830;9.116;2023-05-24T00:53:34;98148.34;;;15.32;64.63
15489;BME280;7846;48.830;9.116;2023-05-24T00:56:01;98149.31;;;15.54;64.38
15489;BME280;7846;48.830;9.116;2023-05-24T00:58:27;98152.59;;;15.56;63.84
15489;BME280;7846;48.830;9.116;2023-05-24T01:00:58;98155.25;;;15.56;63.96
15489;BME280;7846;48.830;9.116;2023-05-24T01:03:24;98156.31;;;15.32;63.71
15489;BME280;7846;48.830;9.116;2023-05-24T01:05:57;98152.09;;;15.37;63.36
15489;BME280;7846;48.830;9.116;2023-05-24T01:14:13;98153.53;;;15.25;62.34
15489;BME280;7846;48.830;9.116;2023-05-24T01:16:51;98154.63;;;15.31;61.62
15489;BME280;7846;48.830;9.116;2023-05-24T01:22:28;98153.31;;;15.87;59.88
15489;BME280;7846;48.830;9.116;2023-05-24T01:27:31;98153.47;;;15.86;59.62
15489;BME280;7846;48.830;9.116;2023-05-24T01:29:58;98158.44;;;15.51;60.86
15489;BME280;7846;48.830;9.116;2023-05-24T01:32:24;98153.22;;;15.43;60.81
15489;BME280;7846;48.830;9.116;2023-05-24T01:34:49;98155.47;;;15.08;60.72
15489;BME280;7846;48.830;9.116;2023-05-24T01:37:15;98148.06;;;14.81;61.42
15489;BME280;7846;48.830;9.116;2023-05-24T01:39:41;98138.75;;;15.08;61.07
15489;BME280;7846;48.830;9.116;2023-05-24T01:45:26;98151.28;;;15.37;60.04
15489;BME280;7846;48.830;9.116;2023-05-24T01:48:10;98163.28;;;15.10;60.47
15489;BME280;7846;48.830;9.116;2023-05-24T01:51:13;98163.44;;;15.08;60.63
15489;BME280;7846;48.830;9.116;2023-05-24T01:53:44;98161.53;;;15.40;60.24
15489;BME280;7846;48.830;9.116;2023-05-24T01:56:14;98162.31;;;15.25;60.47
15489;BME280;7846;48.830;9.116;2023-05-24T01:58:43;98163.50;;;15.23;61.63
15489;BME280;7846;48.830;9.116;2023-05-24T02:01:10;98162.25;;;15.11;61.76
15489;BME280;7846;48.830;9.116;2023-05-24T02:03:39;98166.28;;;15.07;61.65
15489;BME280;7846;48.830;9.116;2023-05-24T02:06:05;98162.81;;;15.06;61.56
15489;BME280;7846;48.830;9.116;2023-05-24T02:08:30;98166.78;;;14.79;62.40
15489;BME280;7846;48.830;9.116;2023-05-24T02:10:56;98167.44;;;14.81;62.80
15489;BME280;7846;48.830;9.116;2023-05-24T02:13:21;98165.13;;;14.78;63.25
15489;BME280;7846;48.830;9.116;2023-05-24T02:15:48;98165.13;;;14.78;63.01
15489;BME280;7846;48.830;9.116;2023-05-24T02:18:14;98167.25;;;14.83;62.29
15489;BME280;7846;48.830;9.116;2023-05-24T02:20:42;98167.44;;;14.81;63.12
15489;BME280;7846;48.830;9.116;2023-05-24T02:23:08;98161.66;;;14.77;63.90
15489;BME280;7846;48.830;9.116;2023-05-24T02:25:33;98166.84;;;14.94;63.43
15489;BME280;7846;48.830;9.116;2023-05-24T02:27:59;98171.38;;;14.62;64.32
15489;BME280;7846;48.830;9.116;2023-05-24T02:30:24;98168.75;;;14.85;63.86
15489;BME280;7846;48.830;9.116;2023-05-24T02:32:52;98170.78;;;14.44;64.78
15489;BME280;7846;48.830;9.116;2023-05-24T02:35:18;98175.06;;;14.45;65.52
15489;BME280;7846;48.830;9.116;2023-05-24T02:37:44;98174.75;;;14.40;65.46
15489;BME280;7846;48.830;9.116;2023-05-24T02:40:09;98174.44;;;14.74;64.74
15489;BME280;7846;48.830;9.116;2023-05-24T02:42:35;98166.13;;;14.54;65.18
15489;BME280;7846;48.830;9.116;2023-05-24T02:45:01;98168.50;;;14.33;65.78
15489;BME280;7846;48.830;9.116;2023-05-24T02:47:28;98172.94;;;14.40;65.85
15489;BME280;7846;48.830;9.116;2023-05-24T02:49:54;98171.56;;;14.52;65.02
15489;BME280;7846;48.830;9.116;2023-05-24T02:52:20;98166.63;;;14.49;64.66
15489;BME280;7846;48.830;9.116;2023-05-24T02:54:47;98169.66;;;14.30;65.51
15489;BME280;7846;48.830;9.116;2023-05-24T02:57:13;98164.75;;;14.19;65.23
15489;BME280;7846;48.830;9.116;2023-05-24T02:59:38;98171.84;;;14.26;65.23
15489;BME280;7846;48.830;9.116;2023-05-24T03:02:04;98162.72;;;14.29;64.99
15489;BME280;7846;48.830;9.116;2023-05-24T03:04:29;98166.56;;;14.18;65.46
15489;BME280;7846;48.830;9.116;2023-05-24T03:06:57;98167.25;;;14.12;65.58
15489;BME280;7846;48.830;9.116;2023-05-24T03:09:22;98168.09;;;14.13;65.69
15489;BME280;7846;48.830;9.116;2023-05-24T03:11:48;98171.91;;;14.10;65.51
15489;BME280;7846;48.830;9.116;2023-05-24T03:14:15;98179.25;;;13.92;66.14
15489;BME280;7846;48.830;9.116;2023-05-24T03:16:41;98167.63;;;14.01;66.18
15489;BME280;7846;48.830;9.116;2023-05-24T03:19:09;98171.53;;;14.21;65.66
15489;BME280;7846;48.830;9.116;2023-05-24T03:21:34;98169.28;;;14.02;66.02
15489;BME280;7846;48.830;9.116;2023-05-24T03:24:00;98168.56;;;14.16;65.87
15489;BME280;7846;48.830;9.116;2023-05-24T03:26:30;98174.81;;;13.76;65.96
15489;BME280;7846;48.830;9.116;2023-05-24T03:28:58;98169.34;;;13.77;66.61
15489;BME280;7846;48.830;9.116;2023-05-24T03:31:23;98165.06;;;13.60;67.25
15489;BME280;7846;48.830;9.116;2023-05-24T03:33:50;98167.38;;;13.79;67.08
15489;BME280;7846;48.830;9.116;2023-05-24T03:36:17;98163.06;;;13.78;66.92
15489;BME280;7846;48.830;9.116;2023-05-24T03:38:42;98156.66;;;13.65;67.41
15489;BME280;7846;48.830;9.116;2023-05-24T03:41:08;98154.19;;;13.55;67.64
15489;BME280;7846;48.830;9.116;2023-05-24T03:43:34;98157.53;;;13.24;67.88
15489;BME280;7846;48.830;9.116;2023-05-24T03:46:01;98165.69;;;13.78;67.85
15489;BME280;7846;48.830;9.116;2023-05-24T03:48:27;98162.75;;;13.57;67.33
15489;BME280;7846;48.830;9.116;2023-05-24T03:50:55;98165.66;;;13.87;67.04
15489;BME280;7846;48.830;9.116;2023-05-24T03:53:21;98165.34;;;13.90;66.57
15489;BME280;7846;48.830;9.116;2023-05-24T03:55:47;98164.50;;;13.97;66.54
15489;BME280;7846;48.830;9.116;2023-05-24T03:58:13;98157.13;;;13.60;67.17
15489;BME280;7846;48.830;9.116;2023-05-24T04:00:38;98162.41;;;13.76;66.88
15489;BME280;7846;48.830;9.116;2023-05-24T04:03:05;98155.66;;;13.66;66.81
15489;BME280;7846;48.830;9.116;2023-05-24T04:05:33;98168.66;;;13.92;66.60
15489;BME280;7846;48.830;9.116;2023-05-24T04:07:58;98159.38;;;13.96;66.25
15489;BME280;7846;48.830;9.116;2023-05-24T04:10:24;98153.50;;;13.69;67.13
15489;BME280;7846;48.830;9.116;2023-05-24T04:12:49;98154.97;;;13.80;66.04
15489;BME280;7846;48.830;9.116;2023-05-24T04:15:14;98152.88;;;13.51;66.76
15489;BME280;7846;48.830;9.116;2023-05-24T04:17:41;98147.25;;;14.01;66.12
15489;BME280;7846;48.830;9.116;2023-05-24T04:20:08;98148.59;;;13.97;66.37
15489;BME280;7846;48.830;9.116;2023-05-24T04:22:34;98151.47;;;13.88;66.65
15489;BME280;7846;48.830;9.116;2023-05-24T04:25:01;98147.38;;;13.69;66.85
15489;BME280;7846;48.830;9.116;2023-05-24T04:27:26;98149.56;;;14.13;66.06
15489;BME280;7846;48.830;9.116;2023-05-24T04:29:53;98153.66;;;13.76;66.80
15489;BME280;7846;48.830;9.116;2023-05-24T04:32:19;98154.75;;;13.98;65.94
15489;BME280;7846;48.830;9.116;2023-05-24T04:34:45;98154.38;;;14.01;65.75
15489;BME280;7846;48.830;9.116;2023-05-24T04:37:15;98158.59;;;13.87;66.16
15489;BME280;7846;48.830;9.116;2023-05-24T04:39:42;98160.75;;;13.75;66.69
15489;BME280;7846;48.830;9.116;2023-05-24T04:42:08;98167.38;;;13.63;66.70
15489;BME280;7846;48.830;9.116;2023-05-24T04:44:33;98169.69;;;13.74;65.94
15489;BME280;7846;48.830;9.116;2023-05-24T04:46:59;98173.84;;;13.52;66.48
15489;BME280;7846;48.830;9.116;2023-05-24T04:49:26;98169.22;;;13.63;66.17
15489;BME280;7846;48.830;9.116;2023-05-24T04:51:52;98173.97;;;13.75;65.81
15489;BME280;7846;48.830;9.116;2023-05-24T04:54:17;98176.47;;;13.77;65.51
15489;BME280;7846;48.830;9.116;2023-05-24T04:56:45;98172.84;;;14.25;64.49
15489;BME280;7846;48.830;9.116;2023-05-24T04:59:10;98176.00;;;13.65;65.97
15489;BME280;7846;48.830;9.116;2023-05-24T05:01:40;98187.34;;;13.98;65.56
15489;BME280;7846;48.830;9.116;2023-05-24T05:04:13;98187.34;;;13.82;65.42
15489;BME280;7846;48.830;9.116;2023-05-24T05:06:39;98187.03;;;13.77;66.02
15489;BME280;7846;48.830;9.116;2023-05-24T05:09:06;98184.78;;;14.21;64.60
15489;BME280;7846;48.830;9.116;2023-05-24T05:11:38;98189.84;;;13.84;65.70
15489;BME280;7846;48.830;9.116;2023-05-24T05:14:04;98191.63;;;13.99;65.09
15489;BME280;7846;48.830;9.116;2023-05-24T05:16:30;98181.78;;;13.69;64.40
15489;BME280;7846;48.830;9.116;2023-05-24T05:19:03;98193.19;;;13.69;65.44
15489;BME280;7846;48.830;9.116;2023-05-24T05:21:29;98194.00;;;13.70;64.78
15489;BME280;7846;48.830;9.116;2023-05-24T05:23:58;98187.34;;;13.82;64.72
15489;BME280;7846;48.830;9.116;2023-05-24T05:26:25;98190.47;;;13.94;64.52
15489;BME280;7846;48.830;9.116;2023-05-24T05:28:51;98183.91;;;13.57;64.26
15489;BME280;7846;48.830;9.116;2023-05-24T05:31:19;98188.72;;;14.25;64.14
15489;BME280;7846;48.830;9.116;2023-05-24T05:33:51;98185.16;;;13.94;63.22
15489;BME280;7846;48.830;9.116;2023-05-24T05:36:16;98187.88;;;13.77;62.79
15489;BME280;7846;48.830;9.116;2023-05-24T05:38:42;98184.94;;;14.20;62.04
15489;BME280;7846;48.830;9.116;2023-05-24T05:41:07;98187.13;;;14.47;61.98
15489;BME280;7846;48.830;9.116;2023-05-24T05:43:33;98189.97;;;13.98;62.82
15489;BME280;7846;48.830;9.116;2023-05-24T05:45:58;98187.94;;;14.09;61.81
15489;BME280;7846;48.830;9.116;2023-05-24T05:48:25;98189.94;;;14.46;62.18
15489;BME280;7846;48.830;9.116;2023-05-24T05:50:50;98193.22;;;14.09;62.04
15489;BME280;7846;48.830;9.116;2023-05-24T05:53:18;98186.41;;;15.16;61.20
15489;BME280;7846;48.830;9.116;2023-05-24T05:55:46;98190.38;;;14.26;62.29
15489;BME280;7846;48.830;9.116;2023-05-24T05:58:11;98185.41;;;14.32;62.05
15489;BME280;7846;48.830;9.116;2023-05-24T06:00:37;98192.88;;;14.28;61.95
15489;BME280;7846;48.830;9.116;2023-05-24T06:03:02;98186.22;;;14.71;61.53
15489;BME280;7846;48.830;9.116;2023-05-24T06:05:30;98184.91;;;14.28;61.43
15489;BME280;7846;48.830;9.116;2023-05-24T06:07:58;98191.00;;;13.81;62.73
15489;BME280;7846;48.830;9.116;2023-05-24T06:10:26;98189.56;;;14.65;61.86
15489;BME280;7846;48.830;9.116;2023-05-24T06:12:51;98185.47;;;14.07;61.92
15489;BME280;7846;48.830;9.116;2023-05-24T06:15:17;98183.53;;;14.40;61.21
15489;BME280;7846;48.830;9.116;2023-05-24T06:17:48;98189.53;;;14.73;61.19
15489;BME280;7846;48.830;9.116;2023-05-24T06:20:13;98186.25;;;14.63;61.35
15489;BME280;7846;48.830;9.116;2023-05-24T06:22:41;98183.06;;;15.22;60.70
15489;BME280;7846;48.830;9.116;2023-05-24T06:25:09;98180.97;;;14.86;60.52
15489;BME280;7846;48.830;9.116;2023-05-24T06:27:34;98175.34;;;14.89;60.37
15489;BME280;7846;48.830;9.116;2023-05-24T06:29:59;98179.75;;;14.74;60.66
15489;BME280;7846;48.830;9.116;2023-05-24T06:32:28;98190.41;;;14.89;61.52
15489;BME280;7846;48.830;9.116;2023-05-24T06:34:56;98191.88;;;15.37;59.42
15489;BME280;7846;48.830;9.116;2023-05-24T06:37:23;98195.31;;;14.77;59.16
15489;BME280;7846;48.830;9.116;2023-05-24T06:39:49;98197.13;;;14.76;60.31
15489;BME280;7846;48.830;9.116;2023-05-24T06:42:15;98196.25;;;14.53;60.61
15489;BME280;7846;48.830;9.116;2023-05-24T06:44:41;98201.97;;;14.96;60.36
15489;BME280;7846;48.830;9.116;2023-05-24T06:47:06;98204.19;;;14.84;60.72
15489;BME280;7846;48.830;9.116;2023-05-24T06:49:33;98207.53;;;14.78;60.61
15489;BME280;7846;48.830;9.116;2023-05-24T06:51:59;98210.63;;;15.13;60.05
15489;BME280;7846;48.830;9.116;2023-05-24T06:54:24;98207.44;;;14.63;59.90
15489;BME280;7846;48.830;9.116;2023-05-24T06:56:51;98216.25;;;15.18;59.65
15489;BME280;7846;48.830;9.116;2023-05-24T06:59:16;98212.31;;;15.14;59.92
15489;BME280;7846;48.830;9.116;2023-05-24T07:01:44;98225.28;;;14.77;61.32
15489;BME280;7846;48.830;9.116;2023-05-24T07:04:09;98224.50;;;14.61;60.53
15489;BME280;7846;48.830;9.116;2023-05-24T07:06:35;98235.91;;;15.00;59.88
15489;BME280;7846;48.830;9.116;2023-05-24T07:09:02;98236.13;;;14.60;61.20
15489;BME280;7846;48.830;9.116;2023-05-24T07:12:06;98237.94;;;14.59;61.81
15489;BME280;7846;48.830;9.116;2023-05-24T07:14:31;98237.75;;;14.61;60.97
15489;BME280;7846;48.830;9.116;2023-05-24T07:16:57;98246.63;;;14.37;62.03
15489;BME280;7846;48.830;9.116;2023-05-24T07:19:23;98243.44;;;14.41;62.03
15489;BME280;7846;48.830;9.116;2023-05-24T07:21:53;98245.41;;;14.87;60.94
15489;BME280;7846;48.830;9.116;2023-05-24T07:24:18;98249.59;;;14.50;61.46
15489;BME280;7846;48.830;9.116;2023-05-24T07:26:46;98255.94;;;14.24;61.83
15489;BME280;7846;48.830;9.116;2023-05-24T07:29:11;98259.66;;;14.38;61.94
15489;BME280;7846;48.830;9.116;2023-05-24T07:31:36;98256.59;;;15.05;60.51
15489;BME280;7846;48.830;9.116;2023-05-24T07:34:02;98255.09;;;14.80;60.29
15489;BME280;7846;48.830;9.116;2023-05-24T07:36:30;98253.19;;;15.19;59.31
15489;BME280;7846;48.830;9.116;2023-05-24T07:38:57;98260.09;;;15.29;59.01
15489;BME280;7846;48.830;9.116;2023-05-24T07:41:25;98257.94;;;15.01;59.61
15489;BME280;7846;48.830;9.116;2023-05-24T07:43:55;98254.59;;;15.07;60.12
15489;BME280;7846;48.830;9.116;2023-05-24T07:46:20;98252.53;;;15.63;58.79
15489;BME280;7846;48.830;9.116;2023-05-24T07:48:46;98260.88;;;14.83;59.42
15489;BME280;7846;48.830;9.116;2023-05-24T07:51:11;98255.69;;;15.13;59.22
15489;BME280;7846;48.830;9.116;2023-05-24T07:53:38;98256.28;;;15.00;59.85
15489;BME280;7846;48.830;9.116;2023-05-24T07:56:04;98251.34;;;14.97;59.79
15489;BME280;7846;48.830;9.116;2023-05-24T07:58:30;98249.16;;;15.00;59.30
15489;BME280;7846;48.830;9.116;2023-05-24T08:00:55;98264.28;;;14.92;60.16
15489;BME280;7846;48.830;9.116;2023-05-24T08:03:21;98266.16;;;15.14;60.08
15489;BME280;7846;48.830;9.116;2023-05-24T08:05:50;98266.72;;;15.01;59.58
15489;BME280;7846;48.830;9.116;2023-05-24T08:08:16;98275.47;;;14.71;61.06
15489;BME280;7846;48.830;9.116;2023-05-24T08:10:41;98276.47;;;15.09;59.72
15489;BME280;7846;48.830;9.116;2023-05-24T08:13:09;98276.78;;;14.83;59.41
15489;BME280;7846;48.830;9.116;2023-05-24T08:15:37;98277.88;;;14.89;59.20
15489;BME280;7846;48.830;9.116;2023-05-24T08:18:02;98269.72;;;14.98;59.85
15489;BME280;7846;48.830;9.116;2023-05-24T08:20:29;98278.03;;;14.95;60.09
15489;BME280;7846;48.830;9.116;2023-05-24T08:22:54;98276.28;;;15.34;59.29
15489;BME280;7846;48.830;9.116;2023-05-24T08:25:22;98280.44;;;14.74;61.06
15489;BME280;7846;48.830;9.116;2023-05-24T08:27:48;98279.88;;;15.18;59.01
15489;BME280;7846;48.830;9.116;2023-05-24T08:30:15;98281.31;;;14.66;60.26
15489;BME280;7846;48.830;9.116;2023-05-24T08:32:40;98276.94;;;16.19;57.69
15489;BME280;7846;48.830;9.116;2023-05-24T08:35:06;98293.16;;;15.64;57.15
15489;BME280;7846;48.830;9.116;2023-05-24T08:37:35;98282.25;;;15.59;58.42
15489;BME280;7846;48.830;9.116;2023-05-24T08:40:06;98281.72;;;16.39;57.15
15489;BME280;7846;48.830;9.116;2023-05-24T08:42:36;98281.91;;;17.76;54.53
15489;BME280;7846;48.830;9.116;2023-05-24T08:45:06;98279.84;;;17.99;53.03
15489;BME280;7846;48.830;9.116;2023-05-24T08:47:35;98303.31;;;16.06;56.00
15489;BME280;7846;48.830;9.116;2023-05-24T08:50:01;98308.06;;;16.11;56.24
15489;BME280;7846;48.830;9.116;2023-05-24T08:52:30;98290.66;;;17.12;54.40
15489;BME280;7846;48.830;9.116;2023-05-24T08:54:59;98304.97;;;15.61;58.11
15489;BME280;7846;48.830;9.116;2023-05-24T08:57:28;98298.91;;;16.13;57.30
15489;BME280;7846;48.830;9.116;2023-05-24T08:59:58;98296.41;;;15.97;57.17
15489;BME280;7846;48.830;9.116;2023-05-24T09:02:25;98297.22;;;16.35;55.96
15489;BME280;7846;48.830;9.116;2023-05-24T09:04:52;98291.88;;;15.37;58.26
15489;BME280;7846;48.830;9.116;2023-05-24T09:07:21;98292.19;;;15.65;57.75
15489;BME280;7846;48.830;9.116;2023-05-24T09:10:02;98289.44;;;14.96;59.38
15489;BME280;7846;48.830;9.116;2023-05-24T09:12:30;98290.13;;;14.90;59.45
15489;BME280;7846;48.830;9.116;2023-05-24T09:14:57;98289.34;;;15.12;58.40
15489;BME280;7846;48.830;9.116;2023-05-24T09:17:23;98285.72;;;15.13;58.77
15489;BME280;7846;48.830;9.116;2023-05-24T09:19:52;98281.44;;;15.35;57.73
15489;BME280;7846;48.830;9.116;2023-05-24T09:22:18;98283.50;;;15.71;56.81
15489;BME280;7846;48.830;9.116;2023-05-24T09:24:51;98281.97;;;15.54;58.04
15489;BME280;7846;48.830;9.116;2023-05-24T09:27:18;98293.59;;;15.76;57.31
15489;BME280;7846;48.830;9.116;2023-05-24T09:29:48;98289.38;;;15.66;57.87
15489;BME280;7846;48.830;9.116;2023-05-24T09:32:16;98290.81;;;15.92;57.64
15489;BME280;7846;48.830;9.116;2023-05-24T09:34:44;98285.09;;;16.33;56.33
15489;BME280;7846;48.830;9.116;2023-05-24T09:37:19;98294.88;;;16.03;56.85
15489;BME280;7846;48.830;9.116;2023-05-24T09:39:47;98295.13;;;15.47;57.40
15489;BME280;7846;48.830;9.116;2023-05-24T09:42:17;98301.94;;;15.41;56.94
15489;BME280;7846;48.830;9.116;2023-05-24T09:45:05;98298.19;;;15.36;58.76
15489;BME280;7846;48.830;9.116;2023-05-24T09:47:34;98304.03;;;15.54;57.22
15489;BME280;7846;48.830;9.116;2023-05-24T09:50:00;98298.53;;;15.33;57.70
15489;BME280;7846;48.830;9.116;2023-05-24T09:52:27;98297.38;;;15.58;57.56
15489;BME280;7846;48.830;9.116;2023-05-24T09:54:54;98292.00;;;15.66;57.53
15489;BME280;7846;48.830;9.116;2023-05-24T09:57:23;98299.88;;;15.29;57.64
15489;BME280;7846;48.830;9.116;2023-05-24T09:59:50;98295.19;;;15.08;58.54
15489;BME280;7846;48.830;9.116;2023-05-24T10:02:17;98294.09;;;14.94;58.79
15489;BME280;7846;48.830;9.116;2023-05-24T10:04:44;98299.28;;;14.79;59.24
15489;BME280;7846;48.830;9.116;2023-05-24T10:07:10;98297.84;;;15.39;56.70
15489;BME280;7846;48.830;9.116;2023-05-24T10:09:37;98300.50;;;15.08;57.55
15489;BME280;7846;48.830;9.116;2023-05-24T10:12:04;98293.78;;;15.74;56.02
15489;BME280;7846;48.830;9.116;2023-05-24T10:14:34;98298.44;;;15.95;56.48
15489;BME280;7846;48.830;9.116;2023-05-24T10:17:01;98302.31;;;16.22;55.26
15489;BME280;7846;48.830;9.116;2023-05-24T10:19:29;98302.28;;;15.69;55.86
15489;BME280;7846;48.830;9.116;2023-05-24T10:21:55;98295.06;;;16.16;55.66
15489;BME280;7846;48.830;9.116;2023-05-24T10:24:32;98291.16;;;16.56;54.10
15489;BME280;7846;48.830;9.116;2023-05-24T10:26:59;98298.31;;;15.88;56.37
15489;BME280;7846;48.830;9.116;2023-05-24T10:29:35;98295.00;;;16.83;54.76
15489;BME280;7846;48.830;9.116;2023-05-24T10:32:06;98285.47;;;16.59;54.46
15489;BME280;7846;48.830;9.116;2023-05-24T10:34:35;98289.31;;;16.86;52.50
15489;BME280;7846;48.830;9.116;2023-05-24T10:37:01;98283.22;;;15.66;53.94
15489;BME280;7846;48.830;9.116;2023-05-24T10:39:27;98290.16;;;15.90;54.95
15489;BME280;7846;48.830;9.116;2023-05-24T10:41:55;98289.25;;;16.65;53.32
15489;BME280;7846;48.830;9.116;2023-05-24T10:44:20;98283.47;;;16.91;53.34
15489;BME280;7846;48.830;9.116;2023-05-24T10:47:06;98284.31;;;16.77;52.81
15489;BME280;7846;48.830;9.116;2023-05-24T10:49:32;98279.88;;;17.20;52.20
15489;BME280;7846;48.830;9.116;2023-05-24T10:52:17;98280.41;;;18.23;50.58
15489;BME280;7846;48.830;9.116;2023-05-24T10:55:02;98278.78;;;18.56;49.65
15489;BME280;7846;48.830;9.116;2023-05-24T10:57:31;98283.94;;;18.02;50.19
15489;BME280;7846;48.830;9.116;2023-05-24T11:02:59;98281.06;;;20.22;46.30
15489;BME280;7846;48.830;9.116;2023-05-24T11:05:32;98277.69;;;18.44;48.04
15489;BME280;7846;48.830;9.116;2023-05-24T11:07:58;98277.66;;;18.09;49.62
15489;BME280;7846;48.830;9.116;2023-05-24T11:10:31;98281.19;;;19.41;47.65
15489;BME280;7846;48.830;9.116;2023-05-24T11:13:00;98279.06;;;19.16;48.16
15489;BME280;7846;48.830;9.116;2023-05-24T11:15:28;98270.56;;;20.07;47.15
15489;BME280;7846;48.830;9.116;2023-05-24T11:20:40;98259.34;;;20.76;44.23
15489;BME280;7846;48.830;9.116;2023-05-24T11:23:07;98268.78;;;19.13;46.01
15489;BME280;7846;48.830;9.116;2023-05-24T11:25:34;98267.91;;;19.80;46.04
15489;BME280;7846;48.830;9.116;2023-05-24T11:28:01;98265.56;;;20.50;43.88
15489;BME280;7846;48.830;9.116;2023-05-24T11:30:28;98266.47;;;20.11;44.90
15489;BME280;7846;48.830;9.116;2023-05-24T11:32:56;98267.09;;;18.92;46.31
15489;BME280;7846;48.830;9.116;2023-05-24T11:35:22;98263.38;;;19.94;44.57
15489;BME280;7846;48.830;9.116;2023-05-24T11:37:51;98258.78;;;20.41;43.57
15489;BME280;7846;48.830;9.116;2023-05-24T11:40:17;98254.75;;;17.65;47.15
15489;BME280;7846;48.830;9.116;2023-05-24T11:42:47;98250.47;;;17.43;48.14
15489;BME280;7846;48.830;9.116;2023-05-24T11:45:12;98241.47;;;19.04;47.05
15489;BME280;7846;48.830;9.116;2023-05-24T11:47:38;98247.78;;;20.76;43.72
15489;BME280;7846;48.830;9.116;2023-05-24T11:50:05;98243.84;;;19.87;44.42
15489;BME280;7846;48.830;9.116;2023-05-24T11:52:31;98249.41;;;20.84;43.51
15489;BME280;7846;48.830;9.116;2023-05-24T11:54:56;98243.63;;;20.22;42.28
15489;BME280;7846;48.830;9.116;2023-05-24T11:57:35;98239.50;;;20.19;44.07
15489;BME280;7846;48.830;9.116;2023-05-24T12:00:05;98227.09;;;19.05;44.86
15489;BME280;7846;48.830;9.116;2023-05-24T12:02:35;98234.34;;;19.38;43.77
15489;BME280;7846;48.830;9.116;2023-05-24T12:05:07;98229.44;;;20.21;42.47
15489;BME280;7846;48.830;9.116;2023-05-24T12:07:35;98235.59;;;19.42;43.55
15489;BME280;7846;48.830;9.116;2023-05-24T12:10:04;98226.66;;;19.02;45.68
15489;BME280;7846;48.830;9.116;2023-05-24T12:12:29;98225.75;;;21.25;41.84
15489;BME280;7846;48.830;9.116;2023-05-24T12:14:56;98238.44;;;19.21;42.92
15489;BME280;7846;48.830;9.116;2023-05-24T12:17:24;98229.19;;;18.69;44.81
15489;BME280;7846;48.830;9.116;2023-05-24T12:19:50;98223.19;;;18.53;44.75
15489;BME280;7846;48.830;9.116;2023-05-24T12:22:15;98224.16;;;20.73;40.95
15489;BME280;7846;48.830;9.116;2023-05-24T12:24:41;98207.34;;;20.52;41.89
15489;BME280;7846;48.830;9.116;2023-05-24T12:27:06;98218.09;;;21.29;40.51
15489;BME280;7846;48.830;9.116;2023-05-24T12:29:37;98222.28;;;21.18;38.71
15489;BME280;7846;48.830;9.116;2023-05-24T12:32:04;98228.88;;;21.79;38.03
15489;BME280;7846;48.830;9.116;2023-05-24T12:34:31;98217.31;;;22.04;39.18
15489;BME280;7846;48.830;9.116;2023-05-24T12:36:56;98219.56;;;24.18;36.64
15489;BME280;7846;48.830;9.116;2023-05-24T12:39:23;98213.28;;;25.95;35.15
15489;BME280;7846;48.830;9.116;2023-05-24T12:41:55;98224.88;;;24.48;35.13
15489;BME280;7846;48.830;9.116;2023-05-24T12:44:28;98220.16;;;24.31;35.04
15489;BME280;7846;48.830;9.116;2023-05-24T12:46:57;98207.81;;;26.90;31.39
15489;BME280;7846;48.830;9.116;2023-05-24T12:49:25;98226.38;;;22.64;36.99
15489;BME280;7846;48.830;9.116;2023-05-24T12:51:54;98217.03;;;21.37;40.63
15489;BME280;7846;48.830;9.116;2023-05-24T12:54:25;98210.03;;;23.33;39.77
15489;BME280;7846;48.830;9.116;2023-05-24T12:56:54;98208.47;;;22.77;37.84
15489;BME280;7846;48.830;9.116;2023-05-24T12:59:20;98198.09;;;22.99;35.69
15489;BME280;7846;48.830;9.116;2023-05-24T13:01:46;98199.19;;;26.10;33.36
15489;BME280;7846;48.830;9.116;2023-05-24T13:04:18;98202.88;;;24.79;33.47
15489;BME280;7846;48.830;9.116;2023-05-24T13:06:50;98201.75;;;23.58;35.66
15489;BME280;7846;48.830;9.116;2023-05-24T13:09:15;98195.78;;;23.02;35.92
15489;BME280;7846;48.830;9.116;2023-05-24T13:11:46;98191.53;;;26.02;33.62
15489;BME280;7846;48.830;9.116;2023-05-24T13:14:13;98185.28;;;22.09;37.02
15489;BME280;7846;48.830;9.116;2023-05-24T13:16:40;98185.25;;;25.96;32.16
15489;BME280;7846;48.830;9.116;2023-05-24T13:19:05;98179.50;;;23.93;33.36
15489;BME280;7846;48.830;9.116;2023-05-24T13:21:32;98182.78;;;25.95;32.75
15489;BME280;7846;48.830;9.116;2023-05-24T13:24:00;98182.13;;;28.11;31.18
15489;BME280;7846;48.830;9.116;2023-05-24T13:26:28;98170.56;;;25.37;32.00
15489;BME280;7846;48.830;9.116;2023-05-24T13:28:54;98171.47;;;22.97;34.07
15489;BME280;7846;48.830;9.116;2023-05-24T13:31:19;98177.66;;;20.67;37.64
15489;BME280;7846;48.830;9.116;2023-05-24T13:33:47;98161.13;;;23.89;35.54